createdAt,value
2022-10-12T00:00:41.648Z,113.47
2022-10-12T00:03:29.377Z,113.70
2022-10-12T00:06:13.981Z,113.20
2022-10-12T00:08:43.843Z,113.15
2022-10-12T00:11:17.001Z,110.78
2022-10-12T00:13:44.787Z,114.32
2022-10-12T00:16:20.960Z,110.32
2022-10-12T00:18:54.551Z,118.03
2022-10-12T00:21:23.053Z,112.20
2022-10-12T00:23:51.293Z,125.28
2022-10-12T00:26:23.886Z,106.43
2022-10-12T00:28:58.279Z,110.07
2022-10-12T00:31:27.253Z,112.35
2022-10-12T00:33:55.680Z,108.03
2022-10-12T00:36:24.420Z,105.55
2022-10-12T00:38:53.855Z,110.05
2022-10-12T00:41:26.146Z,110.10
2022-10-12T00:43:58.171Z,109.10
2022-10-12T00:46:34.601Z,111.75
2022-10-12T00:49:25.846Z,112.57
2022-10-12T00:52:02.666Z,113.68
2022-10-12T00:54:36.420Z,115.00
2022-10-12T00:57:06.225Z,113.15
2022-10-12T01:00:00.737Z,115.18
2022-10-12T01:02:32.344Z,110.32
2022-10-12T01:05:00.763Z,115.03
2022-10-12T01:07:28.511Z,120.00
2022-10-12T01:09:55.988Z,112.82
2022-10-12T01:12:24.671Z,115.55
2022-10-12T01:14:52.262Z,112.95
2022-10-12T01:17:25.565Z,112.07
2022-10-12T01:20:36.643Z,112.72
2022-10-12T01:23:19.175Z,117.45
2022-10-12T01:26:31.558Z,113.43
2022-10-12T01:29:42.792Z,114.45
2022-10-12T01:32:26.838Z,111.05
2022-10-12T01:35:01.338Z,113.05
2022-10-12T01:37:51.380Z,106.78
2022-10-12T01:40:48.337Z,110.95
2022-10-12T01:43:18.666Z,111.55
2022-10-12T01:45:46.530Z,111.57
2022-10-12T01:48:14.128Z,111.05
2022-10-12T01:50:55.661Z,113.55
2022-10-12T01:53:44.568Z,114.82
2022-10-12T01:56:14.595Z,109.13
2022-10-12T01:59:05.300Z,109.80
2022-10-12T02:01:46.322Z,113.32
2022-10-12T02:04:33.500Z,107.90
2022-10-12T02:07:32.816Z,113.07
2022-10-12T02:10:07.562Z,110.38
2022-10-12T02:12:35.915Z,107.53
2022-10-12T02:15:07.592Z,118.47
2022-10-12T02:17:35.734Z,111.70
2022-10-12T02:20:04.663Z,109.55
2022-10-12T02:22:38.671Z,112.13
2022-10-12T02:25:15.360Z,113.30
2022-10-12T02:27:51.617Z,111.25
2022-10-12T02:30:21.358Z,117.55
2022-10-12T02:33:03.731Z,111.45
2022-10-12T02:35:58.732Z,105.63
2022-10-12T02:38:35.372Z,109.35
2022-10-12T02:41:09.810Z,115.53
2022-10-12T02:43:47.124Z,112.32
2022-10-12T02:46:18.512Z,110.80
2022-10-12T02:48:48.638Z,112.18
2022-10-12T02:51:17.529Z,111.10
2022-10-12T02:53:46.026Z,109.43
2022-10-12T02:56:16.416Z,110.57
2022-10-12T02:58:46.438Z,115.53
2022-10-12T03:01:17.058Z,104.68
2022-10-12T03:03:45.988Z,114.57
2022-10-12T03:06:14.004Z,109.73
2022-10-12T03:08:41.486Z,111.15
2022-10-12T03:11:14.193Z,107.03
2022-10-12T03:13:41.858Z,109.28
2022-10-12T03:16:11.585Z,115.38
2022-10-12T03:18:39.099Z,108.20
2022-10-12T03:21:06.804Z,103.50
2022-10-12T03:23:34.584Z,104.63
2022-10-12T03:26:02.205Z,109.95
2022-10-12T03:28:29.933Z,108.75
2022-10-12T03:30:58.734Z,110.18
2022-10-12T03:33:26.363Z,112.83
2022-10-12T03:35:54.014Z,113.10
2022-10-12T03:38:21.760Z,109.95
2022-10-12T03:40:49.261Z,119.60
2022-10-12T03:43:17.392Z,105.43
2022-10-12T03:45:45.006Z,104.60
2022-10-12T03:48:12.719Z,110.32
2022-10-12T03:50:40.341Z,100.97
2022-10-12T03:53:08.374Z,104.53
2022-10-12T03:55:35.925Z,104.28
2022-10-12T03:58:03.770Z,106.10
2022-10-12T04:00:31.556Z,103.10
2022-10-12T04:02:59.349Z,112.00
2022-10-12T04:05:26.837Z,104.25
2022-10-12T04:07:54.442Z,114.93
2022-10-12T04:10:22.829Z,114.03
2022-10-12T04:12:50.328Z,115.47
2022-10-12T04:15:18.476Z,113.78
2022-10-12T04:17:46.640Z,119.68
2022-10-12T04:20:14.386Z,119.43
2022-10-12T04:22:42.210Z,115.43
2022-10-12T04:25:12.135Z,111.70
2022-10-12T04:27:40.254Z,110.88
2022-10-12T04:30:09.047Z,117.50
2022-10-12T04:32:36.933Z,113.97
2022-10-12T04:35:04.756Z,124.47
2022-10-12T04:37:32.474Z,117.75
2022-10-12T04:40:00.144Z,123.75
2022-10-12T04:42:27.862Z,113.22
2022-10-12T04:44:56.111Z,121.00
2022-10-12T04:47:24.286Z,109.25
2022-10-12T04:49:52.009Z,126.07
2022-10-12T04:52:19.798Z,114.72
2022-10-12T04:54:47.361Z,115.28
2022-10-12T04:57:15.145Z,121.53
2022-10-12T04:59:42.716Z,112.57
2022-10-12T05:02:10.769Z,123.78
2022-10-12T05:04:38.366Z,124.95
2022-10-12T05:07:05.849Z,120.28
2022-10-12T05:09:33.629Z,120.20
2022-10-12T05:12:01.165Z,119.57
2022-10-12T05:14:33.492Z,111.05
2022-10-12T05:17:03.762Z,117.45
2022-10-12T05:19:31.504Z,115.40
2022-10-12T05:21:58.976Z,121.93
2022-10-12T05:24:26.708Z,126.68
2022-10-12T05:26:54.297Z,115.57
2022-10-12T05:29:22.024Z,117.68
2022-10-12T05:31:49.510Z,115.28
2022-10-12T05:34:17.256Z,115.47
2022-10-12T05:36:44.708Z,113.15
2022-10-12T05:39:12.418Z,109.72
2022-10-12T05:41:39.984Z,106.95
2022-10-12T05:44:07.989Z,106.13
2022-10-12T05:46:35.496Z,102.25
2022-10-12T05:49:03.471Z,101.13
2022-10-12T05:51:31.048Z,103.03
2022-10-12T05:53:58.811Z,98.03
2022-10-12T05:56:26.296Z,100.95
2022-10-12T05:58:54.106Z,103.78
2022-10-12T06:01:21.853Z,96.60
2022-10-12T06:03:49.727Z,89.85
2022-10-12T06:06:17.828Z,107.85
2022-10-12T06:08:45.597Z,95.97
2022-10-12T06:11:13.774Z,95.30
2022-10-12T06:14:00.932Z,98.55
2022-10-12T06:16:28.668Z,103.93
2022-10-12T06:18:56.556Z,112.13
2022-10-12T06:21:39.479Z,110.15
2022-10-12T06:24:07.620Z,104.63
2022-10-12T06:26:35.151Z,113.85
2022-10-12T06:29:04.652Z,120.35
2022-10-12T06:31:33.971Z,114.90
2022-10-12T06:34:01.595Z,128.50
2022-10-12T06:36:29.427Z,123.13
2022-10-12T06:38:57.008Z,118.90
2022-10-12T06:41:24.946Z,117.50
2022-10-12T06:43:52.417Z,128.20
2022-10-12T06:46:20.385Z,125.90
2022-10-12T06:48:47.951Z,121.90
2022-10-12T06:51:15.781Z,128.50
2022-10-12T06:53:43.322Z,127.82
2022-10-12T06:56:12.414Z,129.68
2022-10-12T06:58:40.214Z,123.20
2022-10-12T07:01:10.786Z,130.50
2022-10-12T07:03:38.727Z,121.88
2022-10-12T07:06:13.312Z,99.10
2022-10-12T07:08:42.193Z,105.60
2022-10-12T07:11:13.764Z,100.22
2022-10-12T07:13:41.801Z,102.88
2022-10-12T07:16:09.681Z,101.95
2022-10-12T07:18:37.421Z,103.88
2022-10-12T07:21:05.310Z,107.40
2022-10-12T07:23:34.383Z,97.47
2022-10-12T07:28:30.026Z,100.05
2022-10-12T07:31:06.692Z,97.57
2022-10-12T07:33:35.918Z,108.95
2022-10-12T07:36:13.802Z,98.35
2022-10-12T07:38:47.122Z,95.97
2022-10-12T07:41:15.774Z,99.22
2022-10-12T07:43:43.665Z,94.80
2022-10-12T07:46:12.197Z,98.15
2022-10-12T07:48:45.731Z,95.77
2022-10-12T07:51:17.070Z,114.38
2022-10-12T07:53:44.620Z,116.43
2022-10-12T07:56:17.108Z,119.40
2022-10-12T07:58:51.049Z,120.50
2022-10-12T08:01:21.017Z,122.47
2022-10-12T08:03:49.546Z,122.65
2022-10-12T08:06:22.221Z,115.57
2022-10-12T08:08:51.017Z,112.70
2022-10-12T08:11:20.289Z,114.57
2022-10-12T08:13:48.192Z,123.47
2022-10-12T08:16:19.865Z,123.63
2022-10-12T08:18:47.954Z,115.53
2022-10-12T08:21:17.407Z,125.28
2022-10-12T08:26:16.036Z,115.10
2022-10-12T08:28:43.927Z,119.85
2022-10-12T08:31:15.314Z,115.72
2022-10-12T08:33:43.022Z,119.05
2022-10-12T08:36:12.128Z,115.15
2022-10-12T08:38:39.754Z,120.55
2022-10-12T08:41:44.727Z,126.43
2022-10-12T08:44:42.869Z,113.22
2022-10-12T08:47:33.407Z,115.10
2022-10-12T08:50:04.016Z,113.50
2022-10-12T08:52:49.157Z,114.03
2022-10-12T08:55:37.217Z,122.15
2022-10-12T08:58:20.643Z,115.27
2022-10-12T09:00:53.716Z,117.55
2022-10-12T09:03:54.881Z,115.97
2022-10-12T09:06:34.169Z,129.07
2022-10-12T09:09:46.542Z,119.30
2022-10-12T09:12:32.973Z,119.60
2022-10-12T09:15:10.499Z,133.77
2022-10-12T09:17:54.777Z,117.05
2022-10-12T09:20:54.590Z,111.57
2022-10-12T09:23:33.890Z,111.82
2022-10-12T09:26:27.396Z,111.45
2022-10-12T09:28:58.208Z,112.97
2022-10-12T09:32:05.345Z,111.05
2022-10-12T09:34:33.088Z,94.75
2022-10-12T09:37:04.461Z,97.05
2022-10-12T09:39:37.830Z,102.35
2022-10-12T09:42:05.729Z,105.50
2022-10-12T09:44:42.400Z,95.32
2022-10-12T09:47:32.406Z,97.03
2022-10-12T09:50:04.206Z,100.93
2022-10-12T09:52:43.371Z,98.70
2022-10-12T09:55:16.964Z,99.38
2022-10-12T09:57:57.703Z,89.47
2022-10-12T10:00:32.426Z,97.13
2022-10-12T10:03:02.345Z,100.20
2022-10-12T10:05:36.632Z,89.53
2022-10-12T10:08:23.548Z,85.80
2022-10-12T10:10:59.338Z,87.10
2022-10-12T10:13:30.650Z,84.10
2022-10-12T10:16:07.937Z,78.68
2022-10-12T10:18:50.111Z,85.15
2022-10-12T10:21:39.684Z,85.50
2022-10-12T10:24:30.849Z,72.35
2022-10-12T10:27:05.279Z,73.50
2022-10-12T10:29:41.740Z,79.13
2022-10-12T10:32:26.440Z,71.25
2022-10-12T10:35:12.519Z,65.47
2022-10-12T10:37:50.239Z,56.83
2022-10-12T10:40:29.341Z,63.00
2022-10-12T10:43:19.892Z,49.92
2022-10-12T10:45:57.273Z,46.97
2022-10-12T10:48:56.109Z,36.30
2022-10-12T10:54:24.511Z,39.30
2022-10-12T10:57:11.462Z,35.13
2022-10-12T10:59:51.218Z,34.70
2022-10-12T11:02:53.728Z,33.22
2022-10-12T11:05:43.331Z,33.85
2022-10-12T11:08:26.801Z,26.15
2022-10-12T11:11:04.726Z,26.20
2022-10-12T11:13:55.509Z,21.17
2022-10-12T11:17:02.347Z,19.45
2022-10-12T11:19:49.548Z,24.25
2022-10-12T11:22:29.824Z,23.25
2022-10-12T11:25:26.422Z,20.92
2022-10-12T11:27:54.139Z,26.80
2022-10-12T11:30:26.516Z,20.20
2022-10-12T11:33:08.331Z,26.35
2022-10-12T11:35:41.458Z,17.80
2022-10-12T11:38:26.693Z,21.45
2022-10-12T11:41:31.114Z,24.77
2022-10-12T11:44:04.062Z,22.15
2022-10-12T11:46:59.271Z,20.65
2022-10-12T11:49:50.774Z,19.85
2022-10-12T11:52:19.907Z,22.98
2022-10-12T11:55:19.297Z,18.88
2022-10-12T11:57:48.445Z,17.27
2022-10-12T12:00:27.606Z,22.23
2022-10-12T12:03:36.863Z,20.48
2022-10-12T12:09:39.690Z,17.35
2022-10-12T12:12:11.856Z,14.40
2022-10-12T12:14:53.137Z,13.48
2022-10-12T12:17:20.586Z,25.65
2022-10-12T12:19:49.961Z,20.58
2022-10-12T12:22:18.542Z,25.67
2022-10-12T12:25:08.555Z,20.23
2022-10-12T12:27:45.045Z,22.90
2022-10-12T12:30:17.987Z,19.67
2022-10-12T12:33:01.262Z,25.02
2022-10-12T12:35:31.451Z,21.85
2022-10-12T12:38:30.606Z,23.23
2022-10-12T12:41:19.786Z,25.35
2022-10-12T12:44:00.039Z,23.75
2022-10-12T12:46:56.413Z,18.48
2022-10-12T12:49:46.239Z,27.15
2022-10-12T12:52:38.930Z,22.30
2022-10-12T12:55:43.641Z,24.20
2022-10-12T12:58:29.489Z,27.70
2022-10-12T13:01:06.227Z,29.75
2022-10-12T13:04:01.101Z,25.75
2022-10-12T13:07:17.731Z,22.65
2022-10-12T13:10:07.699Z,19.95
2022-10-12T13:13:16.707Z,23.05
2022-10-12T13:17:30.861Z,26.20
2022-10-12T13:19:35.336Z,26.35
2022-10-12T13:22:12.904Z,28.58
2022-10-12T13:24:58.915Z,30.85
2022-10-12T13:27:34.196Z,31.88
2022-10-12T13:30:12.687Z,27.90
2022-10-12T13:33:11.527Z,25.52
2022-10-12T13:38:15.311Z,27.40
2022-10-12T13:40:52.720Z,19.48
2022-10-12T13:43:44.467Z,20.15
2022-10-12T13:46:34.176Z,29.23
2022-10-12T13:49:03.593Z,22.58
2022-10-12T13:51:31.768Z,32.00
2022-10-12T13:53:59.373Z,31.02
2022-10-12T13:56:30.249Z,32.40
2022-10-12T13:59:06.720Z,31.17
2022-10-12T14:02:02.005Z,32.20
2022-10-12T14:04:35.564Z,32.92
2022-10-12T14:07:07.791Z,30.02
2022-10-12T14:09:47.525Z,27.05
2022-10-12T14:12:16.629Z,20.85
2022-10-12T14:17:21.381Z,31.80
2022-10-12T14:19:56.059Z,26.42
2022-10-12T14:22:31.508Z,25.88
2022-10-12T14:25:29.911Z,32.38
2022-10-12T14:28:06.922Z,30.70
2022-10-12T14:30:51.042Z,45.25
2022-10-12T14:33:18.447Z,34.42
2022-10-12T14:35:48.920Z,36.65
2022-10-12T14:38:44.742Z,34.78
2022-10-12T14:41:49.775Z,43.67
2022-10-12T14:44:20.575Z,27.63
2022-10-12T14:46:51.131Z,30.27
2022-10-12T14:49:25.781Z,38.78
2022-10-12T14:51:55.398Z,27.52
2022-10-12T14:56:51.463Z,31.88
2022-10-12T14:59:19.273Z,35.97
2022-10-12T15:01:51.193Z,32.33
2022-10-12T15:04:19.433Z,36.97
2022-10-12T15:06:50.725Z,36.97
2022-10-12T15:09:18.855Z,43.42
2022-10-12T15:11:46.459Z,32.55
2022-10-12T15:14:14.542Z,34.40
2022-10-12T15:16:41.981Z,32.10
2022-10-12T15:19:09.812Z,35.80
2022-10-12T15:21:37.358Z,23.95
2022-10-12T15:24:14.447Z,40.95
2022-10-12T15:26:42.524Z,28.77
2022-10-12T15:29:10.330Z,28.42
2022-10-12T15:31:37.864Z,30.00
2022-10-12T15:34:13.895Z,29.08
2022-10-12T15:36:42.001Z,39.58
2022-10-12T15:39:10.701Z,27.50
2022-10-12T15:41:38.303Z,32.88
2022-10-12T15:44:06.901Z,34.92
2022-10-12T15:46:34.902Z,34.47
2022-10-12T15:49:03.267Z,36.97
2022-10-12T15:51:31.935Z,34.13
2022-10-12T15:54:00.031Z,32.58
2022-10-12T15:56:28.567Z,46.45
2022-10-12T15:58:56.377Z,33.08
2022-10-12T16:01:24.085Z,35.58
2022-10-12T16:03:51.972Z,34.60
2022-10-12T16:06:19.847Z,35.15
2022-10-12T16:08:47.707Z,39.08
2022-10-12T16:11:17.966Z,39.78
2022-10-12T16:13:52.564Z,35.55
2022-10-12T16:16:24.337Z,42.78
2022-10-12T16:18:54.025Z,48.22
2022-10-12T16:21:21.691Z,63.67
2022-10-12T16:23:49.972Z,52.28
2022-10-12T16:26:17.915Z,45.60
2022-10-12T16:28:45.627Z,46.22
2022-10-12T16:31:17.695Z,44.28
2022-10-12T16:33:46.126Z,35.03
2022-10-12T16:36:16.628Z,30.13
2022-10-12T16:38:45.649Z,39.50
2022-10-12T16:41:17.618Z,40.35
2022-10-12T16:43:45.183Z,43.25
2022-10-12T16:46:13.663Z,37.75
2022-10-12T16:48:41.219Z,41.20
2022-10-12T16:51:11.365Z,27.40
2022-10-12T16:53:42.665Z,34.40
2022-10-12T16:56:10.974Z,36.67
2022-10-12T16:58:59.221Z,38.88
2022-10-12T17:01:27.082Z,30.40
2022-10-12T17:03:55.012Z,41.20
2022-10-12T17:06:22.900Z,37.20
2022-10-12T17:08:50.369Z,26.92
2022-10-12T17:11:18.312Z,35.75
2022-10-12T17:13:49.124Z,37.22
2022-10-12T17:16:37.105Z,35.10
2022-10-12T17:19:04.790Z,47.22
2022-10-12T17:21:32.974Z,32.85
2022-10-12T17:24:02.495Z,59.08
2022-10-12T17:26:30.737Z,53.65
2022-10-12T17:28:58.510Z,44.55
2022-10-12T17:31:26.431Z,39.13
2022-10-12T17:33:54.348Z,39.70
2022-10-12T17:36:27.189Z,44.90
2022-10-12T17:38:58.515Z,42.92
2022-10-12T17:41:28.706Z,40.45
2022-10-12T17:43:58.092Z,42.42
2022-10-12T17:46:25.983Z,51.25
2022-10-12T17:48:54.131Z,49.42
2022-10-12T17:51:22.103Z,41.10
2022-10-12T17:53:49.692Z,49.28
2022-10-12T17:56:17.547Z,51.20
2022-10-12T17:58:45.284Z,48.45
2022-10-12T18:01:16.917Z,49.20
2022-10-12T18:03:47.370Z,50.78
2022-10-12T18:06:21.308Z,44.58
2022-10-12T18:08:50.812Z,53.67
2022-10-12T18:11:20.738Z,49.05
2022-10-12T18:13:53.417Z,51.15
2022-10-12T18:16:34.149Z,46.00
2022-10-12T18:19:04.815Z,54.45
2022-10-12T18:21:34.325Z,50.85
2022-10-12T18:24:16.143Z,54.65
2022-10-12T18:26:46.325Z,53.85
2022-10-12T18:29:16.444Z,56.22
2022-10-12T18:31:44.293Z,58.70
2022-10-12T18:34:11.945Z,52.50
2022-10-12T18:36:43.634Z,56.05
2022-10-12T18:39:11.356Z,58.47
2022-10-12T18:41:39.067Z,57.45
2022-10-12T18:44:06.969Z,54.20
2022-10-12T18:46:36.764Z,55.38
2022-10-12T18:49:08.144Z,53.17
2022-10-12T18:51:41.358Z,59.28
2022-10-12T18:54:13.115Z,56.92
2022-10-12T18:56:41.805Z,57.50
2022-10-12T18:59:11.433Z,56.15
2022-10-12T19:01:39.700Z,56.80
2022-10-12T19:04:07.312Z,63.28
2022-10-12T19:06:38.553Z,61.45
2022-10-12T19:09:06.447Z,61.50
2022-10-12T19:11:34.662Z,58.75
2022-10-12T19:14:08.777Z,65.82
2022-10-12T19:16:37.230Z,69.40
2022-10-12T19:19:16.927Z,64.50
2022-10-12T19:21:48.028Z,59.20
2022-10-12T19:24:16.336Z,70.15
2022-10-12T19:26:44.869Z,59.88
2022-10-12T19:29:13.005Z,57.67
2022-10-12T19:31:45.623Z,59.67
2022-10-12T19:34:15.537Z,59.65
2022-10-12T19:36:43.430Z,63.38
2022-10-12T19:39:19.762Z,70.60
2022-10-12T19:41:48.970Z,73.22
2022-10-12T19:44:17.434Z,60.53
2022-10-12T19:46:47.879Z,70.60
2022-10-12T19:49:18.549Z,64.70
2022-10-12T19:51:47.782Z,65.85
2022-10-12T19:54:19.686Z,63.72
2022-10-12T19:56:48.165Z,61.72
2022-10-12T19:59:16.222Z,61.60
2022-10-12T20:01:48.101Z,65.55
2022-10-12T20:04:16.235Z,64.65
2022-10-12T20:06:43.717Z,65.63
2022-10-12T20:09:11.662Z,64.55
2022-10-12T20:11:39.779Z,66.68
2022-10-12T20:14:07.799Z,60.92
2022-10-12T20:16:37.529Z,77.78
2022-10-12T20:19:07.086Z,69.57
2022-10-12T20:21:36.778Z,73.07
2022-10-12T20:24:24.378Z,69.90
2022-10-12T20:26:54.058Z,73.50
2022-10-12T20:29:24.110Z,65.55
2022-10-12T20:31:51.629Z,64.55
2022-10-12T20:34:19.326Z,64.43
2022-10-12T20:36:47.897Z,61.05
2022-10-12T20:39:15.685Z,66.63
2022-10-12T20:41:43.563Z,68.68
2022-10-12T20:44:11.137Z,63.95
2022-10-12T20:46:38.963Z,54.80
2022-10-12T20:49:06.788Z,59.97
2022-10-12T20:51:36.645Z,59.50
2022-10-12T20:54:06.606Z,71.18
2022-10-12T20:56:34.793Z,68.00
2022-10-12T20:59:02.370Z,68.85
2022-10-12T21:01:30.061Z,69.90
2022-10-12T21:03:58.285Z,71.65
2022-10-12T21:06:26.082Z,68.50
2022-10-12T21:08:56.782Z,64.05
2022-10-12T21:11:26.359Z,61.00
2022-10-12T21:13:55.064Z,60.53
2022-10-12T21:16:22.826Z,64.85
2022-10-12T21:18:54.988Z,61.83
2022-10-12T21:21:25.351Z,59.35
2022-10-12T21:24:00.299Z,53.28
2022-10-12T21:26:31.096Z,57.20
2022-10-12T21:29:00.499Z,63.92
2022-10-12T21:31:32.207Z,61.88
2022-10-12T21:34:02.881Z,71.55
2022-10-12T21:36:31.823Z,66.25
2022-10-12T21:38:59.842Z,60.55
2022-10-12T21:41:29.841Z,60.88
2022-10-12T21:43:58.508Z,62.35
2022-10-12T21:46:30.055Z,68.45
2022-10-12T21:48:59.584Z,58.08
2022-10-12T21:51:30.453Z,72.50
2022-10-12T21:53:58.580Z,62.72
2022-10-12T21:56:32.383Z,64.50
2022-10-12T21:59:02.386Z,54.92
2022-10-12T22:01:36.396Z,51.85
2022-10-12T22:04:14.159Z,52.83
2022-10-12T22:06:43.529Z,54.33
2022-10-12T22:11:45.821Z,51.15
2022-10-12T22:14:17.843Z,44.72
2022-10-12T22:16:46.448Z,39.80
2022-10-12T22:19:19.965Z,46.17
2022-10-12T22:21:50.053Z,45.28
2022-10-12T22:24:19.497Z,38.67
2022-10-12T22:26:47.415Z,39.30
2022-10-12T22:29:15.277Z,38.15
2022-10-12T22:31:44.534Z,40.85
2022-10-12T22:34:13.783Z,37.05
2022-10-12T22:36:43.436Z,32.58
2022-10-12T22:39:11.087Z,38.17
2022-10-12T22:41:38.605Z,34.53
2022-10-12T22:44:06.438Z,40.08
2022-10-12T22:46:33.914Z,35.78
2022-10-12T22:49:03.332Z,33.42
2022-10-12T22:51:41.050Z,39.85
2022-10-12T22:54:09.719Z,33.78
2022-10-12T22:56:42.611Z,34.03
2022-10-12T22:59:15.619Z,33.28
2022-10-12T23:01:44.207Z,30.20
2022-10-12T23:04:11.900Z,46.88
2022-10-12T23:06:39.398Z,34.03
2022-10-12T23:09:07.233Z,35.20
2022-10-12T23:11:34.723Z,30.13
2022-10-12T23:14:02.589Z,37.92
2022-10-12T23:16:32.537Z,34.75
2022-10-12T23:19:03.572Z,37.40
2022-10-12T23:21:33.886Z,34.95
2022-10-12T23:24:02.663Z,35.75
2022-10-12T23:26:30.690Z,33.20
2022-10-12T23:28:58.580Z,29.08
2022-10-12T23:31:29.666Z,32.40
2022-10-12T23:33:59.711Z,36.92
2022-10-12T23:36:28.495Z,37.65
2022-10-12T23:38:56.007Z,34.15
2022-10-12T23:41:23.589Z,28.55
2022-10-12T23:43:51.356Z,30.30
2022-10-12T23:46:18.868Z,29.27
2022-10-12T23:48:46.406Z,33.92
2022-10-12T23:51:14.223Z,32.80
2022-10-12T23:53:42.622Z,41.83
2022-10-12T23:56:10.891Z,32.97
2022-10-12T23:58:38.765Z,37.03
